sensor_id;sensor_type;location;lat;lon;timestamp;pressure;altitude;pressure_sealevel;temperature;humidity
24962;BME280;12992;50.884;13.668;2023-04-29T00:02:15;96853.28;;;10.87;100.00
24962;BME280;12992;50.884;13.668;2023-04-29T00:04:40;96848.88;;;10.71;100.00
24962;BME280;12992;50.884;13.668;2023-04-29T00:07:06;96831.13;;;10.53;100.00
24962;BME280;12992;50.884;13.668;2023-04-29T00:09:33;96822.09;;;10.37;100.00
24962;BME280;12992;50.884;13.668;2023-04-29T00:11:58;96824.16;;;10.20;100.00
24962;BME280;12992;50.884;13.668;2023-04-29T00:14:23;96833.97;;;10.21;100.00
24962;BME280;12992;50.884;13.668;2023-04-29T00:16:49;96842.19;;;10.26;100.00
24962;BME280;12992;50.884;13.668;2023-04-29T00:19:14;96854.19;;;10.35;100.00
24962;BME280;12992;50.884;13.668;2023-04-29T00:21:40;96879.59;;;10.56;100.00
24962;BME280;12992;50.884;13.668;2023-04-29T00:24:05;96882.09;;;10.73;100.00
24962;BME280;12992;50.884;13.668;2023-04-29T00:26:31;96886.75;;;10.83;100.00
24962;BME280;12992;50.884;13.668;2023-04-29T00:28:57;96884.59;;;10.95;100.00
24962;BME280;12992;50.884;13.668;2023-04-29T00:31:22;96890.91;;;11.00;100.00
24962;BME280;12992;50.884;13.668;2023-04-29T00:33:47;96889.00;;;11.11;100.00
24962;BME280;12992;50.884;13.668;2023-04-29T00:36:13;96892.84;;;11.15;100.00
24962;BME280;12992;50.884;13.668;2023-04-29T00:38:38;96894.78;;;11.25;100.00
24962;BME280;12992;50.884;13.668;2023-04-29T00:41:04;96891.78;;;11.26;100.00
24962;BME280;12992;50.884;13.668;2023-04-29T00:43:29;96885.50;;;11.26;100.00
24962;BME280;12992;50.884;13.668;2023-04-29T00:45:55;96881.41;;;11.28;100.00
24962;BME280;12992;50.884;13.668;2023-04-29T00:48:20;96887.16;;;11.32;100.00
24962;BME280;12992;50.884;13.668;2023-04-29T00:50:46;96875.13;;;11.18;100.00
24962;BME280;12992;50.884;13.668;2023-04-29T00:53:12;96876.22;;;11.17;100.00
24962;BME280;12992;50.884;13.668;2023-04-29T00:55:38;96880.00;;;11.11;100.00
24962;BME280;12992;50.884;13.668;2023-04-29T00:58:04;96888.75;;;11.07;100.00
24962;BME280;12992;50.884;13.668;2023-04-29T01:00:29;96890.66;;;11.07;100.00
24962;BME280;12992;50.884;13.668;2023-04-29T01:02:55;96897.47;;;11.10;100.00
24962;BME280;12992;50.884;13.668;2023-04-29T01:05:22;96906.19;;;11.17;100.00
24962;BME280;12992;50.884;13.668;2023-04-29T01:08:13;96905.66;;;11.25;100.00
24962;BME280;12992;50.884;13.668;2023-04-29T01:10:45;96910.34;;;11.40;100.00
24962;BME280;12992;50.884;13.668;2023-04-29T01:13:17;96917.94;;;11.48;100.00
24962;BME280;12992;50.884;13.668;2023-04-29T01:15:53;96909.50;;;11.54;100.00
24962;BME280;12992;50.884;13.668;2023-04-29T01:18:32;96895.34;;;11.52;100.00
24962;BME280;12992;50.884;13.668;2023-04-29T01:20:59;96886.59;;;11.45;100.00
24962;BME280;12992;50.884;13.668;2023-04-29T01:23:26;96886.63;;;11.40;100.00
24962;BME280;12992;50.884;13.668;2023-04-29T01:25:51;96902.13;;;11.34;100.00
24962;BME280;12992;50.884;13.668;2023-04-29T01:28:53;96907.28;;;11.21;100.00
24962;BME280;12992;50.884;13.668;2023-04-29T01:36:59;96886.22;;;10.81;100.00
24962;BME280;12992;50.884;13.668;2023-04-29T01:39:45;96885.66;;;10.73;100.00
24962;BME280;12992;50.884;13.668;2023-04-29T01:42:35;96891.34;;;10.67;100.00
24962;BME280;12992;50.884;13.668;2023-04-29T01:45:09;96893.78;;;10.68;100.00
24962;BME280;12992;50.884;13.668;2023-04-29T01:47:35;96903.91;;;10.73;100.00
24962;BME280;12992;50.884;13.668;2023-04-29T01:50:01;96903.34;;;10.71;100.00
24962;BME280;12992;50.884;13.668;2023-04-29T01:52:28;96913.16;;;10.72;100.00
24962;BME280;12992;50.884;13.668;2023-04-29T01:54:55;96912.59;;;10.75;100.00
24962;BME280;12992;50.884;13.668;2023-04-29T01:57:22;96925.97;;;10.76;100.00
24962;BME280;12992;50.884;13.668;2023-04-29T02:00:13;96936.03;;;10.76;100.00
24962;BME280;12992;50.884;13.668;2023-04-29T02:02:40;96938.19;;;10.69;100.00
24962;BME280;12992;50.884;13.668;2023-04-29T02:05:16;96954.00;;;10.72;100.00
24962;BME280;12992;50.884;13.668;2023-04-29T02:07:50;96958.31;;;10.68;100.00
24962;BME280;12992;50.884;13.668;2023-04-29T02:10:16;96956.69;;;10.67;100.00
24962;BME280;12992;50.884;13.668;2023-04-29T02:12:43;96963.22;;;10.66;100.00
24962;BME280;12992;50.884;13.668;2023-04-29T02:15:10;96968.66;;;10.61;100.00
24962;BME280;12992;50.884;13.668;2023-04-29T02:17:36;96965.91;;;10.56;100.00
24962;BME280;12992;50.884;13.668;2023-04-29T02:20:01;96966.44;;;10.53;100.00
24962;BME280;12992;50.884;13.668;2023-04-29T02:22:27;96965.84;;;10.45;100.00
24962;BME280;12992;50.884;13.668;2023-04-29T02:24:54;96966.94;;;10.44;100.00
24962;BME280;12992;50.884;13.668;2023-04-29T02:27:20;96960.91;;;10.37;100.00
24962;BME280;12992;50.884;13.668;2023-04-29T02:29:45;96971.84;;;10.42;100.00
24962;BME280;12992;50.884;13.668;2023-04-29T02:32:10;96950.88;;;10.43;100.00
24962;BME280;12992;50.884;13.668;2023-04-29T02:34:39;96964.72;;;10.41;100.00
24962;BME280;12992;50.884;13.668;2023-04-29T02:37:04;96970.75;;;10.43;100.00
24962;BME280;12992;50.884;13.668;2023-04-29T02:39:30;96951.97;;;10.47;100.00
24962;BME280;12992;50.884;13.668;2023-04-29T02:41:55;96955.19;;;10.39;100.00
24962;BME280;12992;50.884;13.668;2023-04-29T02:44:21;96959.53;;;10.35;100.00
24962;BME280;12992;50.884;13.668;2023-04-29T02:46:46;96966.91;;;10.39;100.00
24962;BME280;12992;50.884;13.668;2023-04-29T02:49:12;96977.28;;;10.42;100.00
24962;BME280;12992;50.884;13.668;2023-04-29T02:51:38;96969.13;;;10.42;100.00
24962;BME280;12992;50.884;13.668;2023-04-29T02:54:03;96966.41;;;10.47;100.00
24962;BME280;12992;50.884;13.668;2023-04-29T02:56:29;96960.69;;;10.49;100.00
24962;BME280;12992;50.884;13.668;2023-04-29T02:58:55;96956.88;;;10.45;100.00
24962;BME280;12992;50.884;13.668;2023-04-29T03:01:20;96957.47;;;10.52;100.00
24962;BME280;12992;50.884;13.668;2023-04-29T03:03:46;96953.91;;;10.52;100.00
24962;BME280;12992;50.884;13.668;2023-04-29T03:06:13;96940.81;;;10.43;100.00
24962;BME280;12992;50.884;13.668;2023-04-29T03:08:40;96938.03;;;10.38;100.00
24962;BME280;12992;50.884;13.668;2023-04-29T03:11:05;96933.09;;;10.30;100.00
24962;BME280;12992;50.884;13.668;2023-04-29T03:13:31;96940.41;;;10.25;100.00
24962;BME280;12992;50.884;13.668;2023-04-29T03:15:56;96945.59;;;10.26;100.00
24962;BME280;12992;50.884;13.668;2023-04-29T03:18:23;96955.41;;;10.32;100.00
24962;BME280;12992;50.884;13.668;2023-04-29T03:20:49;96957.06;;;10.33;100.00
24962;BME280;12992;50.884;13.668;2023-04-29T03:23:14;96951.59;;;10.28;100.00
24962;BME280;12992;50.884;13.668;2023-04-29T03:25:39;96954.00;;;10.25;100.00
24962;BME280;12992;50.884;13.668;2023-04-29T03:28:05;96957.06;;;10.33;100.00
24962;BME280;12992;50.884;13.668;2023-04-29T03:30:31;96957.66;;;10.40;100.00
24962;BME280;12992;50.884;13.668;2023-04-29T03:32:57;96951.41;;;10.45;100.00
24962;BME280;12992;50.884;13.668;2023-04-29T03:35:23;96944.63;;;10.47;100.00
24962;BME280;12992;50.884;13.668;2023-04-29T03:38:21;96942.44;;;10.44;100.00
24962;BME280;12992;50.884;13.668;2023-04-29T03:40:47;96946.53;;;10.47;100.00
24962;BME280;12992;50.884;13.668;2023-04-29T03:43:14;96935.91;;;10.50;100.00
24962;BME280;12992;50.884;13.668;2023-04-29T03:45:40;96937.59;;;10.52;100.00
24962;BME280;12992;50.884;13.668;2023-04-29T03:48:05;96942.19;;;10.51;100.00
24962;BME280;12992;50.884;13.668;2023-04-29T03:50:32;96929.91;;;10.43;100.00
24962;BME280;12992;50.884;13.668;2023-04-29T03:52:57;96926.34;;;10.38;100.00
24962;BME280;12992;50.884;13.668;2023-04-29T03:55:22;96934.22;;;10.39;100.00
24962;BME280;12992;50.884;13.668;2023-04-29T03:57:48;96931.56;;;10.44;100.00
24962;BME280;12992;50.884;13.668;2023-04-29T04:00:16;96940.81;;;10.48;100.00
24962;BME280;12992;50.884;13.668;2023-04-29T04:02:44;96934.28;;;10.44;100.00
24962;BME280;12992;50.884;13.668;2023-04-29T04:05:11;96937.28;;;10.48;100.00
24962;BME280;12992;50.884;13.668;2023-04-29T04:07:38;96945.97;;;10.45;100.00
24962;BME280;12992;50.884;13.668;2023-04-29T04:10:21;96944.06;;;10.45;100.00
24962;BME280;12992;50.884;13.668;2023-04-29T04:12:47;96948.47;;;10.52;100.00
24962;BME280;12992;50.884;13.668;2023-04-29T04:15:12;96947.34;;;10.47;100.00
24962;BME280;12992;50.884;13.668;2023-04-29T04:17:38;96947.88;;;10.49;100.00
24962;BME280;12992;50.884;13.668;2023-04-29T04:20:05;96967.53;;;10.57;100.00
24962;BME280;12992;50.884;13.668;2023-04-29T04:22:31;96963.78;;;10.63;100.00
24962;BME280;12992;50.884;13.668;2023-04-29T04:25:12;96965.47;;;10.79;100.00
24962;BME280;12992;50.884;13.668;2023-04-29T04:27:38;96972.06;;;10.88;100.00
24962;BME280;12992;50.884;13.668;2023-04-29T04:30:07;96974.78;;;10.93;100.00
24962;BME280;12992;50.884;13.668;2023-04-29T04:32:33;96959.28;;;10.99;100.00
24962;BME280;12992;50.884;13.668;2023-04-29T04:34:58;96961.19;;;11.03;100.00
24962;BME280;12992;50.884;13.668;2023-04-29T04:37:25;96970.50;;;11.07;100.00
24962;BME280;12992;50.884;13.668;2023-04-29T04:39:53;96963.94;;;11.09;100.00
24962;BME280;12992;50.884;13.668;2023-04-29T04:42:18;96968.34;;;11.15;100.00
24962;BME280;12992;50.884;13.668;2023-04-29T04:44:45;96955.25;;;11.17;100.00
24962;BME280;12992;50.884;13.668;2023-04-29T04:47:18;96960.47;;;11.23;100.00
24962;BME280;12992;50.884;13.668;2023-04-29T04:49:58;96967.56;;;11.34;100.00
24962;BME280;12992;50.884;13.668;2023-04-29T04:52:23;96958.56;;;11.39;100.00
24962;BME280;12992;50.884;13.668;2023-04-29T04:55:00;96959.69;;;11.43;100.00
24962;BME280;12992;50.884;13.668;2023-04-29T04:57:28;96969.78;;;11.53;100.00
24962;BME280;12992;50.884;13.668;2023-04-29T04:59:58;96966.78;;;11.54;100.00
24962;BME280;12992;50.884;13.668;2023-04-29T05:02:24;96974.44;;;11.68;100.00
24962;BME280;12992;50.884;13.668;2023-04-29T05:04:50;96962.16;;;11.70;100.00
24962;BME280;12992;50.884;13.668;2023-04-29T05:07:18;96961.34;;;11.75;100.00
24962;BME280;12992;50.884;13.668;2023-04-29T05:09:58;96968.50;;;11.86;100.00
24962;BME280;12992;50.884;13.668;2023-04-29T05:12:27;96969.03;;;11.93;100.00
24962;BME280;12992;50.884;13.668;2023-04-29T05:14:55;96969.03;;;12.03;100.00
24962;BME280;12992;50.884;13.668;2023-04-29T05:17:21;96964.09;;;12.00;100.00
24962;BME280;12992;50.884;13.668;2023-04-29T05:19:46;96963.84;;;12.02;100.00
24962;BME280;12992;50.884;13.668;2023-04-29T05:22:12;96963.28;;;12.00;100.00
24962;BME280;12992;50.884;13.668;2023-04-29T05:24:39;96951.00;;;11.92;100.00
24962;BME280;12992;50.884;13.668;2023-04-29T05:27:04;96940.38;;;11.85;100.00
24962;BME280;12992;50.884;13.668;2023-04-29T05:29:30;96942.28;;;11.80;100.00
24962;BME280;12992;50.884;13.668;2023-04-29T05:31:58;96950.44;;;11.75;100.00
24962;BME280;12992;50.884;13.668;2023-04-29T05:34:23;96962.72;;;11.77;100.00
24962;BME280;12992;50.884;13.668;2023-04-29T05:36:50;96967.91;;;11.79;100.00
24962;BME280;12992;50.884;13.668;2023-04-29T05:39:16;96970.09;;;11.77;100.00
24962;BME280;12992;50.884;13.668;2023-04-29T05:41:42;96977.78;;;11.85;100.00
24962;BME280;12992;50.884;13.668;2023-04-29T05:44:14;96982.13;;;11.91;100.00
24962;BME280;12992;50.884;13.668;2023-04-29T05:46:39;96978.31;;;11.97;100.00
24962;BME280;12992;50.884;13.668;2023-04-29T05:49:04;96989.75;;;11.99;100.00
24962;BME280;12992;50.884;13.668;2023-04-29T05:51:30;96987.56;;;12.01;100.00
24962;BME280;12992;50.884;13.668;2023-04-29T05:53:57;96989.25;;;12.02;100.00
24962;BME280;12992;50.884;13.668;2023-04-29T05:56:24;96993.03;;;12.06;100.00
24962;BME280;12992;50.884;13.668;2023-04-29T05:58:49;96995.22;;;12.09;100.00
24962;BME280;12992;50.884;13.668;2023-04-29T06:01:16;96996.06;;;12.20;100.00
24962;BME280;12992;50.884;13.668;2023-04-29T06:03:42;96997.94;;;12.25;100.00
24962;BME280;12992;50.884;13.668;2023-04-29T06:06:21;96995.19;;;12.35;100.00
24962;BME280;12992;50.884;13.668;2023-04-29T06:09:01;96994.66;;;12.43;100.00
24962;BME280;12992;50.884;13.668;2023-04-29T06:11:28;97003.09;;;12.57;100.00
24962;BME280;12992;50.884;13.668;2023-04-29T06:13:54;96999.25;;;12.63;100.00
24962;BME280;12992;50.884;13.668;2023-04-29T06:16:19;96997.34;;;12.73;100.00
24962;BME280;12992;50.884;13.668;2023-04-29T06:18:45;96999.22;;;12.83;100.00
24962;BME280;12992;50.884;13.668;2023-04-29T06:21:12;96982.84;;;12.73;100.00
24962;BME280;12992;50.884;13.668;2023-04-29T06:23:37;96976.28;;;12.69;100.00
24962;BME280;12992;50.884;13.668;2023-04-29T06:26:09;96971.69;;;12.59;100.00
24962;BME280;12992;50.884;13.668;2023-04-29T06:28:35;96956.97;;;12.40;100.00
24962;BME280;12992;50.884;13.668;2023-04-29T06:31:00;96967.63;;;12.36;100.00
24962;BME280;12992;50.884;13.668;2023-04-29T06:33:26;96958.91;;;12.29;100.00
24962;BME280;12992;50.884;13.668;2023-04-29T06:35:52;96963.28;;;12.25;100.00
24962;BME280;12992;50.884;13.668;2023-04-29T06:38:36;96967.38;;;12.17;100.00
24962;BME280;12992;50.884;13.668;2023-04-29T06:41:20;96975.03;;;12.15;100.00
24962;BME280;12992;50.884;13.668;2023-04-29T06:43:48;96978.59;;;12.11;100.00
24962;BME280;12992;50.884;13.668;2023-04-29T06:46:32;96988.69;;;12.10;100.00
24962;BME280;12992;50.884;13.668;2023-04-29T06:49:05;96993.31;;;12.10;100.00
24962;BME280;12992;50.884;13.668;2023-04-29T06:51:31;97000.69;;;12.09;100.00
24962;BME280;12992;50.884;13.668;2023-04-29T06:53:57;96993.03;;;12.06;100.00
24962;BME280;12992;50.884;13.668;2023-04-29T06:56:23;97007.25;;;12.03;100.00
24962;BME280;12992;50.884;13.668;2023-04-29T06:58:48;96997.66;;;12.01;100.00
24962;BME280;12992;50.884;13.668;2023-04-29T07:01:13;97002.31;;;11.95;100.00
24962;BME280;12992;50.884;13.668;2023-04-29T07:03:39;97014.31;;;11.99;100.00
24962;BME280;12992;50.884;13.668;2023-04-29T07:06:04;97011.06;;;12.02;100.00
24962;BME280;12992;50.884;13.668;2023-04-29T07:08:30;97017.34;;;12.08;100.00
24962;BME280;12992;50.884;13.668;2023-04-29T07:10:57;97016.78;;;12.16;100.00
24962;BME280;12992;50.884;13.668;2023-04-29T07:13:23;97018.97;;;12.04;100.00
24962;BME280;12992;50.884;13.668;2023-04-29T07:15:49;97022.53;;;12.04;100.00
24962;BME280;12992;50.884;13.668;2023-04-29T07:18:15;97018.69;;;12.05;100.00
24962;BME280;12992;50.884;13.668;2023-04-29T07:20:40;97027.16;;;12.09;100.00
24962;BME280;12992;50.884;13.668;2023-04-29T07:23:06;97026.63;;;12.12;100.00
24962;BME280;12992;50.884;13.668;2023-04-29T07:25:32;97039.44;;;12.32;100.00
24962;BME280;12992;50.884;13.668;2023-04-29T07:27:58;97036.16;;;12.25;100.00
24962;BME280;12992;50.884;13.668;2023-04-29T07:30:24;97031.78;;;12.18;100.00
24962;BME280;12992;50.884;13.668;2023-04-29T07:32:50;97035.09;;;12.10;100.00
24962;BME280;12992;50.884;13.668;2023-04-29T07:35:17;97029.06;;;11.98;100.00
24962;BME280;12992;50.884;13.668;2023-04-29T07:37:42;97032.88;;;11.92;100.00
24962;BME280;12992;50.884;13.668;2023-04-29T07:40:09;97040.50;;;11.90;100.00
24962;BME280;12992;50.884;13.668;2023-04-29T07:42:36;97027.94;;;11.79;100.00
24962;BME280;12992;50.884;13.668;2023-04-29T07:45:03;97040.25;;;11.86;100.00
24962;BME280;12992;50.884;13.668;2023-04-29T07:47:28;97044.06;;;11.85;100.00
24962;BME280;12992;50.884;13.668;2023-04-29T07:49:54;97051.69;;;11.83;100.00
24962;BME280;12992;50.884;13.668;2023-04-29T07:52:19;97047.59;;;11.81;100.00
24962;BME280;12992;50.884;13.668;2023-04-29T07:54:47;97068.91;;;11.94;100.00
24962;BME280;12992;50.884;13.668;2023-04-29T07:57:13;97082.56;;;12.09;100.00
24962;BME280;12992;50.884;13.668;2023-04-29T07:59:38;97086.66;;;12.17;100.00
24962;BME280;12992;50.884;13.668;2023-04-29T08:02:03;97092.94;;;12.28;100.00
24962;BME280;12992;50.884;13.668;2023-04-29T08:04:29;97098.16;;;12.39;100.00
24962;BME280;12992;50.884;13.668;2023-04-29T08:07:03;97083.97;;;12.37;100.00
24962;BME280;12992;50.884;13.668;2023-04-29T08:09:28;97076.59;;;12.33;100.00
24962;BME280;12992;50.884;13.668;2023-04-29T08:11:54;97078.22;;;12.29;100.00
24962;BME280;12992;50.884;13.668;2023-04-29T08:14:19;97059.94;;;12.14;100.00
24962;BME280;12992;50.884;13.668;2023-04-29T08:16:44;97067.84;;;12.10;100.00
24962;BME280;12992;50.884;13.668;2023-04-29T08:19:10;97068.13;;;12.14;100.00
24962;BME280;12992;50.884;13.668;2023-04-29T08:21:35;97095.44;;;12.39;100.00
24962;BME280;12992;50.884;13.668;2023-04-29T08:24:01;97098.16;;;12.50;100.00
24962;BME280;12992;50.884;13.668;2023-04-29T08:26:26;97092.97;;;12.43;100.00
24962;BME280;12992;50.884;13.668;2023-04-29T08:28:52;97100.34;;;12.53;100.00
24962;BME280;12992;50.884;13.668;2023-04-29T08:31:18;97099.25;;;12.59;100.00
24962;BME280;12992;50.884;13.668;2023-04-29T08:33:44;97091.34;;;12.57;100.00
24962;BME280;12992;50.884;13.668;2023-04-29T08:36:10;97103.06;;;12.63;100.00
24962;BME280;12992;50.884;13.668;2023-04-29T08:38:35;97108.25;;;12.80;100.00
24962;BME280;12992;50.884;13.668;2023-04-29T08:41:00;97102.22;;;12.77;100.00
24962;BME280;12992;50.884;13.668;2023-04-29T08:43:26;97100.88;;;12.75;100.00
24962;BME280;12992;50.884;13.668;2023-04-29T08:45:51;97098.13;;;12.70;100.00
24962;BME280;12992;50.884;13.668;2023-04-29T08:48:17;97100.06;;;12.74;100.00
24962;BME280;12992;50.884;13.668;2023-04-29T08:50:43;97103.88;;;12.79;100.00
24962;BME280;12992;50.884;13.668;2023-04-29T08:53:10;97112.06;;;12.89;100.00
24962;BME280;12992;50.884;13.668;2023-04-29T08:55:44;97105.22;;;12.86;100.00
24962;BME280;12992;50.884;13.668;2023-04-29T08:58:12;97108.22;;;12.95;100.00
24962;BME280;12992;50.884;13.668;2023-04-29T09:00:43;97116.94;;;13.07;100.00
24962;BME280;12992;50.884;13.668;2023-04-29T09:03:26;97117.50;;;13.19;100.00
24962;BME280;12992;50.884;13.668;2023-04-29T09:05:53;97109.25;;;13.35;100.00
24962;BME280;12992;50.884;13.668;2023-04-29T09:08:21;97124.41;;;13.76;100.00
24962;BME280;12992;50.884;13.668;2023-04-29T09:10:48;97131.28;;;14.23;100.00
24962;BME280;12992;50.884;13.668;2023-04-29T09:13:28;97126.41;;;14.88;100.00
24962;BME280;12992;50.884;13.668;2023-04-29T09:15:53;97127.84;;;15.63;100.00
24962;BME280;12992;50.884;13.668;2023-04-29T09:18:41;97096.19;;;15.89;100.00
24962;BME280;12992;50.884;13.668;2023-04-29T09:21:13;97083.72;;;15.78;100.00
24962;BME280;12992;50.884;13.668;2023-04-29T09:23:38;97061.59;;;15.45;100.00
24962;BME280;12992;50.884;13.668;2023-04-29T09:26:04;97015.84;;;14.69;100.00
24962;BME280;12992;50.884;13.668;2023-04-29T09:28:29;97004.28;;;14.09;100.00
24962;BME280;12992;50.884;13.668;2023-04-29T09:30:55;96994.22;;;13.65;100.00
24962;BME280;12992;50.884;13.668;2023-04-29T09:33:20;97016.16;;;13.55;100.00
24962;BME280;12992;50.884;13.668;2023-04-29T09:35:45;97030.38;;;13.57;100.00
24962;BME280;12992;50.884;13.668;2023-04-29T09:38:14;97045.72;;;13.53;100.00
24962;BME280;12992;50.884;13.668;2023-04-29T09:40:42;97059.31;;;13.68;100.00
24962;BME280;12992;50.884;13.668;2023-04-29T09:43:14;97045.69;;;13.58;100.00
24962;BME280;12992;50.884;13.668;2023-04-29T09:45:42;97046.84;;;13.42;100.00
24962;BME280;12992;50.884;13.668;2023-04-29T09:48:09;97034.66;;;13.09;100.00
24962;BME280;12992;50.884;13.668;2023-04-29T09:50:36;97029.00;;;12.85;100.00
24962;BME280;12992;50.884;13.668;2023-04-29T09:53:02;97048.66;;;12.87;100.00
24962;BME280;12992;50.884;13.668;2023-04-29T09:55:28;97067.75;;;12.97;100.00
24962;BME280;12992;50.884;13.668;2023-04-29T09:57:54;97089.59;;;13.17;100.00
24962;BME280;12992;50.884;13.668;2023-04-29T10:00:20;97098.34;;;13.24;100.00
24962;BME280;12992;50.884;13.668;2023-04-29T10:02:47;97078.19;;;12.80;100.00
24962;BME280;12992;50.884;13.668;2023-04-29T10:05:15;97054.75;;;12.23;100.00
24962;BME280;12992;50.884;13.668;2023-04-29T10:07:41;97044.88;;;11.86;100.00
24962;BME280;12992;50.884;13.668;2023-04-29T10:10:08;97053.56;;;11.68;100.00
24962;BME280;12992;50.884;13.668;2023-04-29T10:12:35;97065.19;;;11.48;100.00
24962;BME280;12992;50.884;13.668;2023-04-29T10:15:19;97069.53;;;11.33;100.00
24962;BME280;12992;50.884;13.668;2023-04-29T10:17:59;97092.16;;;11.34;100.00
24962;BME280;12992;50.884;13.668;2023-04-29T10:20:27;97090.22;;;11.24;100.00
24962;BME280;12992;50.884;13.668;2023-04-29T10:22:54;97113.16;;;11.33;100.00
24962;BME280;12992;50.884;13.668;2023-04-29T10:25:22;97120.00;;;11.41;100.00
24962;BME280;12992;50.884;13.668;2023-04-29T10:27:49;97143.22;;;11.54;100.00
24962;BME280;12992;50.884;13.668;2023-04-29T10:30:17;97138.09;;;11.57;100.00
24962;BME280;12992;50.884;13.668;2023-04-29T10:32:44;97141.88;;;11.56;100.00
24962;BME280;12992;50.884;13.668;2023-04-29T10:35:11;97152.81;;;11.61;100.00
24962;BME280;12992;50.884;13.668;2023-04-29T10:37:39;97147.91;;;11.58;100.00
24962;BME280;12992;50.884;13.668;2023-04-29T10:40:17;97170.41;;;11.86;100.00
24962;BME280;12992;50.884;13.668;2023-04-29T10:42:51;97170.69;;;12.00;100.00
24962;BME280;12992;50.884;13.668;2023-04-29T10:45:29;97189.59;;;12.16;100.00
24962;BME280;12992;50.884;13.668;2023-04-29T10:53:11;97179.53;;;12.42;100.00
24962;BME280;12992;50.884;13.668;2023-04-29T10:55:38;97177.09;;;12.51;100.00
24962;BME280;12992;50.884;13.668;2023-04-29T10:58:04;97178.72;;;12.62;100.00
24962;BME280;12992;50.884;13.668;2023-04-29T11:00:31;97173.00;;;12.69;100.00
24962;BME280;12992;50.884;13.668;2023-04-29T11:02:59;97185.84;;;12.94;100.00
24962;BME280;12992;50.884;13.668;2023-04-29T11:05:29;97182.56;;;13.17;100.00
24962;BME280;12992;50.884;13.668;2023-04-29T11:10:40;97189.34;;;13.50;100.00
24962;BME280;12992;50.884;13.668;2023-04-29T11:13:27;97155.50;;;13.26;100.00
24962;BME280;12992;50.884;13.668;2023-04-29T11:16:05;97149.75;;;13.17;100.00
24962;BME280;12992;50.884;13.668;2023-04-29T11:18:32;97145.41;;;13.01;100.00
24962;BME280;12992;50.884;13.668;2023-04-29T11:23:30;97158.78;;;13.08;100.00
24962;BME280;12992;50.884;13.668;2023-04-29T11:25:56;97179.28;;;13.30;100.00
24962;BME280;12992;50.884;13.668;2023-04-29T11:28:23;97158.50;;;13.14;100.00
24962;BME280;12992;50.884;13.668;2023-04-29T11:30:52;97119.75;;;12.82;100.00
24962;BME280;12992;50.884;13.668;2023-04-29T11:33:19;97141.03;;;12.90;100.00
24962;BME280;12992;50.884;13.668;2023-04-29T11:35:44;97179.31;;;13.20;100.00
24962;BME280;12992;50.884;13.668;2023-04-29T11:38:10;97193.72;;;13.56;100.00
24962;BME280;12992;50.884;13.668;2023-04-29T11:40:40;97198.81;;;13.88;100.00
24962;BME280;12992;50.884;13.668;2023-04-29T11:43:06;97219.91;;;14.48;100.00
24962;BME280;12992;50.884;13.668;2023-04-29T11:45:34;97182.03;;;14.55;100.00
24962;BME280;12992;50.884;13.668;2023-04-29T11:48:00;97181.22;;;14.54;100.00
24962;BME280;12992;50.884;13.668;2023-04-29T11:50:26;97121.91;;;13.85;100.00
24962;BME280;12992;50.884;13.668;2023-04-29T11:52:51;97113.91;;;13.24;100.00
24962;BME280;12992;50.884;13.668;2023-04-29T11:55:17;97107.69;;;12.77;100.00
24962;BME280;12992;50.884;13.668;2023-04-29T11:57:43;97094.59;;;12.24;100.00
24962;BME280;12992;50.884;13.668;2023-04-29T12:00:09;97117.50;;;12.02;100.00
24962;BME280;12992;50.884;13.668;2023-04-29T12:02:38;97134.41;;;11.94;100.00
24962;BME280;12992;50.884;13.668;2023-04-29T12:05:07;97140.66;;;11.84;100.00
24962;BME280;12992;50.884;13.668;2023-04-29T12:07:32;97149.41;;;11.86;100.00
24962;BME280;12992;50.884;13.668;2023-04-29T12:09:58;97166.34;;;11.94;100.00
24962;BME280;12992;50.884;13.668;2023-04-29T12:12:24;97166.34;;;11.94;100.00
24962;BME280;12992;50.884;13.668;2023-04-29T12:14:52;97165.78;;;11.97;100.00
24962;BME280;12992;50.884;13.668;2023-04-29T12:17:18;97164.66;;;11.93;100.00
24962;BME280;12992;50.884;13.668;2023-04-29T12:19:43;97174.25;;;11.95;100.00
24962;BME280;12992;50.884;13.668;2023-04-29T12:22:10;97175.88;;;11.96;100.00
24962;BME280;12992;50.884;13.668;2023-04-29T12:24:37;97173.94;;;11.91;100.00
24962;BME280;12992;50.884;13.668;2023-04-29T12:27:03;97179.13;;;11.88;100.00
24962;BME280;12992;50.884;13.668;2023-04-29T12:29:30;97181.31;;;11.91;100.00
24962;BME280;12992;50.884;13.668;2023-04-29T12:31:55;97191.16;;;11.92;100.00
24962;BME280;12992;50.884;13.668;2023-04-29T12:34:26;97191.16;;;11.92;100.00
24962;BME280;12992;50.884;13.668;2023-04-29T12:36:54;97207.00;;;12.00;100.00
24962;BME280;12992;50.884;13.668;2023-04-29T12:39:19;97217.97;;;12.10;100.00
24962;BME280;12992;50.884;13.668;2023-04-29T12:41:45;97224.00;;;12.23;100.00
24962;BME280;12992;50.884;13.668;2023-04-29T12:44:10;97211.16;;;12.18;100.00
24962;BME280;12992;50.884;13.668;2023-04-29T12:46:37;97200.75;;;12.05;100.00
24962;BME280;12992;50.884;13.668;2023-04-29T12:49:04;97198.78;;;11.90;100.00
24962;BME280;12992;50.884;13.668;2023-04-29T12:51:31;97196.59;;;11.87;100.00
24962;BME280;12992;50.884;13.668;2023-04-29T12:54:03;97209.19;;;11.93;100.00
24962;BME280;12992;50.884;13.668;2023-04-29T12:56:32;97236.53;;;12.13;100.00
24962;BME280;12992;50.884;13.668;2023-04-29T12:59:08;97227.81;;;12.16;100.00
24962;BME280;12992;50.884;13.668;2023-04-29T13:01:34;97227.53;;;12.18;100.00